Time;durP1;ratioP1;P1;durP2;ratioP2;P2;SDS_P1;SDS_P2;PMS_P1;PMS_P2;Temp;Humidity;BMP_temperature;BMP_pressure;BME280_temperature;BME280_humidity;BME280_pressure;Samples;Min_cycle;Max_cycle;Signal;HPM_P1;HPM_P2
2022/09/18 00:02:03;;;;;;;2.93;2.27;;;20.10;99.90;;;;;;6106007;23;20205;-95
2022/09/18 00:04:37;;;;;;;6.10;2.47;;;20.10;99.90;;;;;;6106368;23;20703;-95
2022/09/18 00:07:09;;;;;;;6.80;2.40;;;19.80;99.90;;;;;;6106751;23;20179;-96
2022/09/18 00:09:42;;;;;;;5.10;2.30;;;19.60;99.90;;;;;;6105341;23;20311;-96
2022/09/18 00:12:21;;;;;;;3.20;2.53;;;19.50;99.90;;;;;;6101421;23;20168;-96
2022/09/18 00:14:53;;;;;;;5.50;2.20;;;19.60;99.90;;;;;;6102489;23;20179;-96
2022/09/18 00:17:24;;;;;;;5.83;2.60;;;19.60;99.90;;;;;;6081497;23;20262;-96
2022/09/18 00:19:56;;;;;;;5.80;2.63;;;19.40;99.90;;;;;;6107747;23;20183;-96
2022/09/18 00:22:29;;;;;;;3.87;2.63;;;19.40;99.90;;;;;;6109165;23;20238;-96
2022/09/18 00:25:00;;;;;;;4.90;2.70;;;19.40;99.90;;;;;;6108605;23;20254;-96
2022/09/18 00:27:36;;;;;;;3.40;2.87;;;19.40;99.90;;;;;;6084850;23;20195;-96
2022/09/18 00:30:10;;;;;;;5.40;3.23;;;19.40;99.90;;;;;;6106806;23;20213;-96
2022/09/18 00:32:42;;;;;;;4.13;2.93;;;19.30;99.90;;;;;;6081832;23;20174;-96
2022/09/18 00:35:14;;;;;;;4.60;3.03;;;19.40;99.90;;;;;;6113642;23;20187;-96
2022/09/18 00:37:47;;;;;;;6.47;3.33;;;19.30;99.90;;;;;;6094629;23;20175;-96
2022/09/18 00:40:20;;;;;;;5.60;3.17;;;19.20;99.90;;;;;;6100490;23;20233;-96
2022/09/18 00:42:55;;;;;;;6.60;4.13;;;19.20;99.90;;;;;;6122103;23;20178;-96
2022/09/18 00:45:27;;;;;;;4.70;2.83;;;19.10;99.90;;;;;;6099761;23;20166;-96
2022/09/18 00:47:57;;;;;;;6.23;2.60;;;18.80;99.90;;;;;;6116941;23;20274;-96
2022/09/18 00:50:32;;;;;;;4.77;2.50;;;18.60;99.90;;;;;;6120335;23;20262;-95
2022/09/18 00:53:06;;;;;;;3.70;2.07;;;18.40;99.90;;;;;;6092758;23;20230;-95
2022/09/18 00:55:39;;;;;;;3.53;2.13;;;18.40;99.90;;;;;;6115422;23;20205;-94
2022/09/18 00:58:12;;;;;;;3.73;2.03;;;18.20;99.90;;;;;;6059669;23;20179;-96
2022/09/18 01:00:45;;;;;;;3.03;2.27;;;18.10;99.90;;;;;;6107174;23;20187;-95
2022/09/18 01:03:17;;;;;;;3.57;2.40;;;18.00;99.90;;;;;;6106715;23;20503;-96
2022/09/18 01:06:03;;;;;;;3.60;1.97;;;17.80;99.90;;;;;;6116891;23;20206;-95
2022/09/18 01:08:43;;;;;;;7.07;2.30;;;17.80;99.90;;;;;;6121166;23;20230;-95
2022/09/18 01:11:28;;;;;;;4.03;1.90;;;17.80;99.90;;;;;;6122443;23;20194;-95
2022/09/18 01:14:15;;;;;;;5.67;2.00;;;17.70;99.90;;;;;;6089010;23;20191;-92
2022/09/18 01:16:51;;;;;;;2.80;1.87;;;17.70;99.90;;;;;;6091314;23;20252;-92
2022/09/18 01:19:43;;;;;;;4.73;2.00;;;17.70;99.90;;;;;;6075727;23;20262;-92
2022/09/18 01:22:32;;;;;;;5.13;1.70;;;17.70;99.90;;;;;;6069855;23;20176;-90
2022/09/18 01:25:21;;;;;;;3.93;2.03;;;17.50;99.90;;;;;;6070202;23;20176;-89
2022/09/18 01:28:10;;;;;;;3.53;1.93;;;17.40;99.90;;;;;;6068432;23;20186;-90
2022/09/18 01:30:45;;;;;;;7.20;1.90;;;17.30;99.90;;;;;;6069809;23;20208;-90
2022/09/18 01:33:26;;;;;;;4.20;1.93;;;17.20;99.90;;;;;;6069007;23;20175;-89
2022/09/18 01:36:01;;;;;;;4.23;2.20;;;17.10;99.90;;;;;;6077062;23;20171;-90
2022/09/18 01:38:35;;;;;;;3.80;1.87;;;16.90;99.90;;;;;;6069133;23;20172;-91
2022/09/18 01:41:10;;;;;;;3.00;2.27;;;16.90;99.90;;;;;;6068847;23;20242;-89
2022/09/18 01:43:47;;;;;;;5.00;1.80;;;16.80;99.90;;;;;;6070580;23;20215;-96
2022/09/18 01:51:54;;;;;;;3.90;2.00;;;16.50;99.90;;;;;;6078026;23;20243;-96
2022/09/18 01:54:32;;;;;;;6.27;2.30;;;16.30;99.90;;;;;;6074288;23;20179;-95
2022/09/18 01:57:11;;;;;;;4.07;1.60;;;16.30;99.90;;;;;;6081414;23;20206;-92
2022/09/18 01:59:52;;;;;;;3.30;2.00;;;16.20;99.90;;;;;;6090114;23;20258;-96
2022/09/18 02:02:31;;;;;;;3.00;2.03;;;16.10;99.90;;;;;;6065759;23;20195;-96
2022/09/18 02:05:08;;;;;;;4.37;2.00;;;16.00;99.90;;;;;;6052779;23;20239;-94
2022/09/18 02:07:47;;;;;;;4.20;2.17;;;15.90;99.90;;;;;;6072109;23;20168;-95
2022/09/18 02:10:21;;;;;;;4.43;2.30;;;15.90;99.90;;;;;;6071951;23;20207;-94
2022/09/18 02:12:55;;;;;;;4.17;2.30;;;15.80;99.90;;;;;;6075110;23;20180;-93
2022/09/18 02:15:35;;;;;;;8.07;2.07;;;15.80;99.90;;;;;;6050224;23;20403;-93
2022/09/18 02:18:10;;;;;;;2.47;1.80;;;15.70;99.90;;;;;;6048593;23;20255;-93
2022/09/18 02:23:27;;;;;;;3.63;1.80;;;15.50;99.90;;;;;;6069607;23;20256;-95
2022/09/18 02:26:01;;;;;;;4.10;1.60;;;15.40;99.90;;;;;;6054371;23;20186;-92
2022/09/18 02:31:41;;;;;;;4.20;2.23;;;15.30;99.90;;;;;;6075445;23;20202;-97
2022/09/18 02:34:16;;;;;;;4.40;2.33;;;15.30;99.90;;;;;;6100721;23;20202;-96
2022/09/18 02:37:01;;;;;;;3.87;2.10;;;15.20;99.90;;;;;;6071762;23;20207;-92
2022/09/18 02:39:44;;;;;;;5.07;2.40;;;15.10;99.90;;;;;;6127038;23;20185;-91
2022/09/18 02:42:27;;;;;;;4.07;2.23;;;15.00;99.90;;;;;;6101096;23;20214;-94
2022/09/18 02:45:07;;;;;;;6.50;2.40;;;15.00;99.90;;;;;;6133244;23;20250;-95
2022/09/18 02:47:56;;;;;;;3.10;1.97;;;14.90;99.90;;;;;;6131375;23;20178;-95
2022/09/18 02:50:36;;;;;;;3.13;2.20;;;14.80;99.90;;;;;;6128359;23;20248;-95
2022/09/18 02:53:14;;;;;;;5.47;2.30;;;14.80;99.90;;;;;;6129861;23;20185;-94
2022/09/18 02:55:51;;;;;;;3.93;2.30;;;14.70;99.90;;;;;;6129996;23;20249;-94
2022/09/18 02:58:29;;;;;;;4.03;1.90;;;14.70;99.90;;;;;;6128209;23;20523;-96
2022/09/18 03:01:07;;;;;;;4.23;2.10;;;14.70;99.90;;;;;;6127854;23;20174;-92
2022/09/18 03:03:40;;;;;;;2.97;1.90;;;14.70;99.90;;;;;;6126171;23;20166;-95
2022/09/18 03:06:11;;;;;;;2.13;1.60;;;14.70;99.90;;;;;;6127365;23;20692;-95
2022/09/18 03:08:43;;;;;;;4.30;1.90;;;14.70;99.90;;;;;;6103790;23;20478;-95
2022/09/18 03:11:14;;;;;;;4.37;2.30;;;14.70;99.90;;;;;;6126976;23;20717;-95
2022/09/18 03:13:46;;;;;;;3.33;2.00;;;14.60;99.90;;;;;;6125469;23;20967;-94
2022/09/18 03:16:21;;;;;;;3.27;2.13;;;14.70;99.90;;;;;;6101796;23;20178;-94
2022/09/18 03:18:54;;;;;;;3.17;1.63;;;14.60;99.90;;;;;;6128414;23;20181;-90
2022/09/18 03:21:26;;;;;;;3.00;1.80;;;14.60;99.90;;;;;;6128466;23;20185;-90
2022/09/18 03:23:57;;;;;;;4.30;1.80;;;14.50;99.90;;;;;;6128050;23;20213;-92
2022/09/18 03:26:29;;;;;;;3.20;2.40;;;14.50;99.90;;;;;;6129202;23;20178;-92
2022/09/18 03:29:00;;;;;;;6.20;2.70;;;14.50;99.90;;;;;;6129858;23;20181;-94
2022/09/18 03:31:31;;;;;;;4.37;2.20;;;14.40;99.90;;;;;;6129608;23;20202;-94
2022/09/18 03:34:05;;;;;;;5.80;2.23;;;14.40;99.90;;;;;;6133718;23;20167;-93
2022/09/18 03:36:37;;;;;;;3.93;1.80;;;14.40;99.90;;;;;;6151699;23;20279;-93
2022/09/18 03:39:08;;;;;;;4.20;2.10;;;14.40;99.90;;;;;;6152372;23;20242;-93
2022/09/18 03:41:39;;;;;;;2.40;2.03;;;14.30;99.90;;;;;;6150932;23;20265;-92
2022/09/18 03:44:10;;;;;;;3.80;1.80;;;14.30;99.90;;;;;;6150815;23;20174;-93
2022/09/18 03:46:42;;;;;;;2.63;1.83;;;14.30;99.90;;;;;;6150678;23;20235;-94
2022/09/18 03:49:15;;;;;;;3.43;1.77;;;14.30;99.90;;;;;;6152049;23;20218;-93
2022/09/18 03:51:46;;;;;;;3.53;2.10;;;14.20;99.90;;;;;;6149916;23;20213;-94
2022/09/18 03:54:17;;;;;;;6.13;2.23;;;14.20;99.90;;;;;;6150682;23;20194;-93
2022/09/18 03:56:49;;;;;;;5.47;2.20;;;14.20;99.90;;;;;;6150806;23;20218;-93
2022/09/18 03:59:20;;;;;;;5.10;2.73;;;14.20;99.90;;;;;;6121172;23;20178;-93
2022/09/18 04:01:52;;;;;;;6.83;2.90;;;14.10;99.90;;;;;;6131692;23;20185;-92
2022/09/18 04:04:26;;;;;;;6.60;2.77;;;14.10;99.90;;;;;;6131096;23;20210;-92
2022/09/18 04:06:57;;;;;;;3.67;2.47;;;14.10;99.90;;;;;;6145373;23;20226;-91
2022/09/18 04:09:28;;;;;;;4.33;2.17;;;14.10;99.90;;;;;;6145711;23;20201;-92
2022/09/18 04:11:59;;;;;;;3.70;2.10;;;14.10;99.90;;;;;;6107245;23;20538;-91
2022/09/18 04:14:30;;;;;;;3.00;1.80;;;14.10;99.90;;;;;;6138495;23;20296;-92
2022/09/18 04:17:01;;;;;;;3.77;2.10;;;14.00;99.90;;;;;;6137980;23;20230;-92
2022/09/18 04:19:35;;;;;;;4.17;2.30;;;14.00;99.90;;;;;;6134375;23;20174;-92
2022/09/18 04:22:06;;;;;;;4.93;2.30;;;13.90;99.90;;;;;;6111765;23;20691;-91
2022/09/18 04:24:38;;;;;;;4.40;2.33;;;14.00;99.90;;;;;;6143806;23;20180;-92
2022/09/18 04:27:10;;;;;;;5.00;2.17;;;13.90;99.90;;;;;;6136514;23;20189;-92
2022/09/18 04:29:42;;;;;;;3.17;2.00;;;13.90;99.90;;;;;;6131405;23;20170;-92
2022/09/18 04:32:13;;;;;;;5.13;2.80;;;13.90;99.90;;;;;;6129787;23;20690;-93
2022/09/18 04:34:46;;;;;;;2.80;2.20;;;13.90;99.90;;;;;;6129809;23;20184;-94
2022/09/18 04:37:17;;;;;;;5.30;2.90;;;13.90;99.90;;;;;;6129698;23;20186;-93
2022/09/18 04:39:48;;;;;;;4.30;2.67;;;13.90;99.90;;;;;;6129408;23;20182;-94
2022/09/18 04:42:20;;;;;;;5.77;3.10;;;13.90;99.90;;;;;;6128520;23;20633;-94
2022/09/18 04:44:51;;;;;;;5.13;3.17;;;13.80;99.90;;;;;;6129397;23;20234;-91
2022/09/18 04:47:22;;;;;;;4.07;2.83;;;13.80;99.90;;;;;;6129087;23;20181;-94
2022/09/18 04:49:55;;;;;;;4.70;2.60;;;13.80;99.90;;;;;;6129141;23;20700;-93
2022/09/18 04:52:26;;;;;;;4.37;2.50;;;13.70;99.90;;;;;;6129275;23;20229;-94
2022/09/18 04:54:58;;;;;;;2.57;1.80;;;13.60;99.90;;;;;;6129847;23;20167;-92
2022/09/18 04:57:30;;;;;;;3.07;2.30;;;13.60;99.90;;;;;;6129398;23;20171;-93
2022/09/18 05:00:01;;;;;;;4.70;2.00;;;13.60;99.90;;;;;;6128415;23;20201;-93
2022/09/18 05:02:32;;;;;;;4.03;2.10;;;13.60;99.90;;;;;;6127618;23;20991;-93
2022/09/18 05:05:07;;;;;;;4.00;2.67;;;13.60;99.90;;;;;;6128776;23;20198;-92
2022/09/18 05:07:38;;;;;;;6.97;3.23;;;13.70;99.90;;;;;;6131759;23;20245;-92
2022/09/18 05:10:11;;;;;;;4.27;2.57;;;13.70;99.90;;;;;;6129044;23;20174;-92
2022/09/18 05:12:43;;;;;;;5.10;2.93;;;13.70;99.90;;;;;;6104789;23;20209;-93
2022/09/18 05:15:15;;;;;;;7.17;3.13;;;13.70;99.90;;;;;;6129513;23;20179;-92
2022/09/18 05:17:48;;;;;;;8.30;3.43;;;13.70;99.90;;;;;;6104203;23;20249;-91
2022/09/18 05:20:21;;;;;;;4.00;2.60;;;13.70;99.90;;;;;;6133059;23;20200;-92
2022/09/18 05:22:53;;;;;;;4.80;2.97;;;13.70;99.90;;;;;;6130087;23;20185;-92
2022/09/18 05:25:26;;;;;;;5.83;2.47;;;13.70;99.90;;;;;;6133655;23;20174;-93
2022/09/18 05:27:58;;;;;;;3.70;2.37;;;13.70;99.90;;;;;;6105285;23;20183;-93
2022/09/18 05:30:31;;;;;;;3.80;2.10;;;13.70;99.90;;;;;;6129856;23;20181;-93
2022/09/18 05:33:04;;;;;;;3.67;1.93;;;13.70;99.90;;;;;;6131736;23;20183;-92
2022/09/18 05:35:39;;;;;;;2.83;1.70;;;13.70;99.90;;;;;;6130397;23;20214;-93
2022/09/18 05:38:12;;;;;;;2.70;2.10;;;13.70;99.90;;;;;;6130757;23;20261;-91
2022/09/18 05:40:43;;;;;;;3.03;1.70;;;13.70;99.90;;;;;;6131233;23;20250;-93
2022/09/18 05:43:15;;;;;;;3.47;1.80;;;13.80;99.90;;;;;;6135374;23;20493;-93
2022/09/18 05:45:46;;;;;;;4.87;2.00;;;13.80;99.90;;;;;;6152176;23;20206;-93
2022/09/18 05:48:17;;;;;;;4.40;1.83;;;13.80;99.90;;;;;;6126801;23;20238;-92
2022/09/18 05:50:52;;;;;;;1.90;1.43;;;13.80;99.90;;;;;;6127453;23;20211;-93
2022/09/18 05:53:25;;;;;;;2.10;1.50;;;13.90;99.90;;;;;;6144039;23;20612;-93
2022/09/18 05:55:56;;;;;;;3.47;1.80;;;13.80;99.90;;;;;;6130588;23;20178;-93
2022/09/18 05:58:27;;;;;;;3.27;1.93;;;13.80;99.90;;;;;;6130204;23;20217;-93
2022/09/18 06:01:00;;;;;;;3.80;1.80;;;13.80;99.90;;;;;;6130542;23;20641;-94
2022/09/18 06:03:32;;;;;;;4.93;1.67;;;13.80;99.90;;;;;;6129749;23;20198;-93
2022/09/18 06:06:06;;;;;;;3.87;2.07;;;13.80;99.90;;;;;;6105159;23;20175;-92
2022/09/18 06:08:37;;;;;;;3.17;1.60;;;13.80;99.90;;;;;;6130027;23;20626;-93
2022/09/18 06:11:10;;;;;;;3.40;1.80;;;13.80;99.90;;;;;;6131262;23;20185;-92
2022/09/18 06:13:41;;;;;;;3.00;1.70;;;13.80;99.90;;;;;;6129009;23;20178;-92
2022/09/18 06:16:13;;;;;;;2.47;1.40;;;13.80;99.90;;;;;;6129952;23;20186;-92
2022/09/18 06:18:44;;;;;;;3.93;1.70;;;13.90;99.90;;;;;;6129962;23;20177;-92
2022/09/18 06:21:18;;;;;;;3.57;1.53;;;13.80;99.90;;;;;;6129847;23;20225;-92
2022/09/18 06:23:50;;;;;;;3.43;1.70;;;13.80;99.90;;;;;;6129210;23;20174;-93
2022/09/18 06:26:22;;;;;;;3.20;1.50;;;13.80;99.90;;;;;;6129539;23;20180;-92
2022/09/18 06:28:53;;;;;;;3.23;1.60;;;13.70;99.90;;;;;;6130377;23;20258;-92
2022/09/18 06:31:24;;;;;;;2.90;1.40;;;13.70;99.90;;;;;;6132310;23;20225;-93
2022/09/18 06:33:55;;;;;;;2.63;1.73;;;13.70;99.90;;;;;;6143277;23;20174;-92
2022/09/18 06:36:29;;;;;;;4.87;1.83;;;13.70;99.90;;;;;;6150249;23;20189;-91
2022/09/18 06:39:00;;;;;;;3.10;1.60;;;13.60;99.90;;;;;;6149391;23;20194;-92
2022/09/18 06:41:33;;;;;;;4.60;2.13;;;13.60;99.90;;;;;;6148503;23;20162;-94
2022/09/18 06:44:04;;;;;;;2.90;1.70;;;13.50;99.90;;;;;;6142906;23;20282;-93
2022/09/18 06:46:36;;;;;;;2.73;1.50;;;13.50;99.90;;;;;;6144544;23;20178;-93
2022/09/18 06:49:07;;;;;;;3.33;1.80;;;13.50;99.90;;;;;;6138605;23;20177;-93
2022/09/18 06:51:40;;;;;;;3.27;1.67;;;13.50;99.90;;;;;;6133037;23;20267;-94
2022/09/18 06:54:12;;;;;;;3.20;1.50;;;13.40;99.90;;;;;;6134702;23;20242;-92
2022/09/18 06:56:43;;;;;;;2.70;1.50;;;13.40;99.90;;;;;;6132394;23;20183;-93
2022/09/18 06:59:15;;;;;;;2.33;1.70;;;13.40;99.90;;;;;;6108431;23;20198;-93
2022/09/18 07:01:47;;;;;;;4.87;1.63;;;13.30;99.90;;;;;;6129763;23;20179;-92
2022/09/18 07:04:19;;;;;;;3.20;1.77;;;13.30;99.90;;;;;;6128702;23;20247;-93
2022/09/18 07:06:53;;;;;;;4.10;2.10;;;13.30;99.90;;;;;;6130746;23;20163;-94
2022/09/18 07:09:26;;;;;;;3.47;1.40;;;13.20;99.90;;;;;;6128311;23;20173;-94
2022/09/18 07:12:00;;;;;;;3.50;2.07;;;13.10;99.90;;;;;;6125785;23;20205;-96
2022/09/18 07:14:33;;;;;;;3.20;1.80;;;13.10;99.90;;;;;;6127481;23;20190;-93
2022/09/18 07:17:05;;;;;;;3.20;2.03;;;13.10;99.90;;;;;;6126917;23;20174;-93
2022/09/18 07:19:36;;;;;;;5.40;2.00;;;13.00;99.90;;;;;;6102567;23;20552;-93
2022/09/18 07:22:10;;;;;;;6.27;1.80;;;13.00;99.90;;;;;;6126168;23;20185;-93
2022/09/18 07:24:42;;;;;;;2.17;1.73;;;12.90;99.90;;;;;;6126947;23;20221;-93
2022/09/18 07:27:13;;;;;;;2.80;1.70;;;12.90;99.90;;;;;;6126868;23;20644;-93
2022/09/18 07:29:44;;;;;;;4.70;1.80;;;12.90;99.90;;;;;;6126930;23;20213;-93
2022/09/18 07:32:15;;;;;;;3.87;1.90;;;12.80;99.90;;;;;;6125797;23;20745;-93
2022/09/18 07:34:46;;;;;;;3.07;1.77;;;12.80;99.90;;;;;;6127244;23;20254;-94
2022/09/18 07:37:20;;;;;;;3.87;2.10;;;12.80;99.90;;;;;;6126496;23;20190;-91
2022/09/18 07:39:52;;;;;;;4.97;2.07;;;12.80;99.90;;;;;;6102517;23;20173;-92
2022/09/18 07:42:25;;;;;;;4.10;1.93;;;12.70;99.90;;;;;;6126564;23;20707;-92
2022/09/18 07:44:56;;;;;;;2.00;1.70;;;12.70;99.90;;;;;;6127755;23;20197;-92
2022/09/18 07:47:30;;;;;;;3.47;2.00;;;12.70;99.90;;;;;;6127480;23;20257;-92
2022/09/18 07:50:02;;;;;;;3.33;1.80;;;12.70;99.90;;;;;;6127010;23;20181;-93
2022/09/18 07:52:35;;;;;;;3.57;2.57;;;12.60;99.90;;;;;;6126977;23;20194;-93
2022/09/18 07:55:07;;;;;;;2.13;1.50;;;12.60;99.90;;;;;;6127759;23;20556;-94
2022/09/18 07:57:38;;;;;;;4.20;1.97;;;12.60;99.90;;;;;;6127977;23;20253;-92
2022/09/18 08:00:10;;;;;;;2.30;1.93;;;12.60;99.90;;;;;;6127523;23;20228;-93
2022/09/18 08:02:41;;;;;;;3.93;2.03;;;12.60;99.90;;;;;;6126866;23;20174;-93
2022/09/18 08:05:13;;;;;;;4.33;2.30;;;12.50;99.90;;;;;;6129212;23;20206;-93
2022/09/18 08:07:47;;;;;;;4.00;1.80;;;12.40;99.90;;;;;;6105453;23;20413;-92
2022/09/18 08:10:18;;;;;;;3.83;2.20;;;12.40;99.90;;;;;;6128718;23;20185;-93
2022/09/18 08:12:54;;;;;;;3.70;2.10;;;12.30;99.90;;;;;;6132260;23;20272;-93
2022/09/18 08:15:25;;;;;;;2.83;1.77;;;12.30;99.90;;;;;;6131531;23;20192;-93
2022/09/18 08:17:59;;;;;;;4.90;2.00;;;12.30;99.90;;;;;;6107659;23;20178;-93
2022/09/18 08:20:31;;;;;;;2.93;1.97;;;12.20;99.90;;;;;;6131180;23;20185;-92
2022/09/18 08:23:08;;;;;;;4.40;2.10;;;12.20;99.90;;;;;;6103189;23;20167;-92
2022/09/18 08:25:40;;;;;;;2.80;1.97;;;12.20;99.90;;;;;;6131269;23;20685;-93
2022/09/18 08:28:11;;;;;;;2.40;2.00;;;12.10;99.90;;;;;;6129147;23;20178;-92
2022/09/18 08:30:44;;;;;;;5.23;2.37;;;11.90;99.90;;;;;;6128828;23;20547;-93
2022/09/18 08:33:16;;;;;;;3.73;2.20;;;11.90;99.90;;;;;;6128265;23;20210;-92
2022/09/18 08:35:49;;;;;;;2.20;1.70;;;11.90;99.90;;;;;;6134094;23;20167;-92
2022/09/18 08:38:23;;;;;;;3.27;2.00;;;11.90;99.90;;;;;;6105496;23;20716;-91
2022/09/18 08:41:10;;;;;;;2.90;1.87;;;11.90;99.90;;;;;;6129560;23;20181;-91
2022/09/18 08:43:57;;;;;;;3.43;2.20;;;11.90;99.90;;;;;;6128604;23;20171;-92
2022/09/18 08:46:37;;;;;;;3.50;1.90;;;12.00;99.90;;;;;;6129006;23;20178;-91
2022/09/18 08:49:22;;;;;;;3.67;1.53;;;12.00;99.90;;;;;;6130180;23;20178;-92
2022/09/18 08:51:58;;;;;;;4.67;2.03;;;12.00;99.90;;;;;;6131168;23;20184;-91
2022/09/18 08:54:45;;;;;;;4.73;2.03;;;12.00;99.90;;;;;;6132103;23;20281;-93
2022/09/18 08:57:22;;;;;;;3.67;1.90;;;12.00;99.90;;;;;;6107622;23;20174;-93
2022/09/18 08:59:57;;;;;;;6.57;1.97;;;12.10;99.90;;;;;;6130140;23;20174;-94
2022/09/18 09:02:39;;;;;;;4.77;1.80;;;12.10;99.90;;;;;;6106667;23;20372;-92
2022/09/18 09:05:13;;;;;;;5.40;2.00;;;12.20;99.90;;;;;;6131073;23;20185;-93
2022/09/18 09:08:24;;;;;;;2.27;1.70;;;12.20;99.90;;;;;;6136879;23;20511;-91
2022/09/18 09:11:06;;;;;;;2.50;1.67;;;12.30;99.90;;;;;;6134613;23;20171;-92
2022/09/18 09:14:03;;;;;;;3.50;1.47;;;12.30;99.90;;;;;;6127399;23;20859;-93
2022/09/18 09:16:42;;;;;;;3.43;1.93;;;12.30;99.90;;;;;;6130511;23;20181;-93
2022/09/18 09:19:27;;;;;;;2.57;1.50;;;12.40;99.90;;;;;;6131026;23;20170;-93
2022/09/18 09:22:06;;;;;;;3.33;1.57;;;12.40;99.90;;;;;;6128042;23;20182;-92
2022/09/18 09:24:48;;;;;;;3.23;1.57;;;12.50;99.90;;;;;;6128316;23;20257;-91
2022/09/18 09:27:25;;;;;;;4.73;1.87;;;12.50;99.90;;;;;;6129246;23;20205;-93
2022/09/18 09:30:02;;;;;;;3.83;1.73;;;12.50;99.90;;;;;;6128724;23;20193;-92
2022/09/18 09:32:40;;;;;;;3.77;1.60;;;12.50;99.90;;;;;;6130049;23;20186;-92
2022/09/18 09:35:26;;;;;;;5.30;1.90;;;12.60;99.90;;;;;;6130339;23;20188;-93
2022/09/18 09:38:01;;;;;;;5.57;2.10;;;12.60;99.90;;;;;;6129752;23;20190;-91
2022/09/18 09:40:37;;;;;;;1.80;1.70;;;12.50;99.90;;;;;;6131063;23;20174;-91
2022/09/18 09:43:18;;;;;;;4.87;2.10;;;12.50;99.90;;;;;;6127597;23;20178;-92
2022/09/18 09:45:52;;;;;;;2.43;1.63;;;12.60;99.90;;;;;;6103388;23;20250;-93
2022/09/18 09:48:30;;;;;;;3.03;1.73;;;12.50;99.90;;;;;;6127898;23;20174;-92
2022/09/18 09:51:06;;;;;;;5.57;1.90;;;12.50;99.90;;;;;;6127129;23;20680;-92
2022/09/18 09:53:38;;;;;;;3.67;1.77;;;12.50;99.90;;;;;;6126221;23;20202;-92
2022/09/18 09:56:18;;;;;;;2.57;1.50;;;12.40;99.90;;;;;;6129018;23;20238;-92
2022/09/18 09:58:59;;;;;;;4.63;2.00;;;12.40;99.90;;;;;;6128441;23;20175;-92
2022/09/18 10:01:42;;;;;;;2.70;1.90;;;12.40;99.90;;;;;;6104667;23;20748;-95
2022/09/18 10:04:26;;;;;;;2.97;1.93;;;12.40;99.90;;;;;;6128570;23;20170;-94
2022/09/18 10:07:04;;;;;;;4.37;2.00;;;12.40;99.90;;;;;;6127430;23;20183;-94
2022/09/18 10:09:45;;;;;;;4.03;1.83;;;12.30;99.90;;;;;;6128290;23;20184;-93
2022/09/18 10:12:26;;;;;;;2.67;1.67;;;12.30;99.90;;;;;;6128179;23;20339;-94
2022/09/18 10:15:07;;;;;;;3.30;1.67;;;12.30;99.90;;;;;;6105797;23;20201;-93
2022/09/18 10:17:42;;;;;;;3.13;1.83;;;12.40;99.90;;;;;;6129701;23;20174;-94
2022/09/18 10:20:17;;;;;;;4.70;1.90;;;12.40;99.90;;;;;;6145095;23;20549;-92
2022/09/18 10:22:50;;;;;;;2.13;1.30;;;12.50;99.90;;;;;;6146493;23;20170;-92
2022/09/18 10:25:34;;;;;;;2.00;1.40;;;12.50;99.90;;;;;;6128301;23;20182;-93
2022/09/18 10:28:06;;;;;;;1.97;1.50;;;12.50;99.90;;;;;;6104408;23;20245;-93
2022/09/18 10:30:57;;;;;;;4.60;1.63;;;12.50;99.90;;;;;;6128663;23;20178;-91
2022/09/18 10:33:38;;;;;;;2.80;1.50;;;12.60;99.90;;;;;;6127081;23;20206;-93
2022/09/18 10:36:21;;;;;;;5.37;1.87;;;12.50;99.90;;;;;;6128190;23;20182;-93
2022/09/18 10:38:52;;;;;;;4.57;1.60;;;12.50;99.90;;;;;;6128679;23;20643;-91
2022/09/18 10:41:30;;;;;;;2.90;1.87;;;12.50;99.90;;;;;;6130386;23;20179;-93
2022/09/18 10:44:08;;;;;;;3.23;1.60;;;12.50;99.90;;;;;;6131029;23;20241;-91
2022/09/18 10:46:51;;;;;;;4.13;1.53;;;12.50;99.90;;;;;;6128552;23;20179;-93
2022/09/18 10:49:27;;;;;;;3.40;1.67;;;12.60;99.90;;;;;;6128403;23;20229;-92
2022/09/18 10:52:34;;;;;;;3.10;1.97;;;12.50;99.90;;;;;;6127955;23;20197;-92
2022/09/18 10:55:17;;;;;;;3.70;1.93;;;12.50;99.90;;;;;;6010891;23;20258;-92
2022/09/18 10:58:12;;;;;;;2.97;1.77;;;12.60;99.90;;;;;;6011614;23;20191;-92
2022/09/18 11:00:48;;;;;;;4.03;1.70;;;12.60;99.90;;;;;;6114509;23;20178;-92
2022/09/18 11:03:46;;;;;;;4.50;1.90;;;12.60;99.90;;;;;;6124416;23;20230;-93
2022/09/18 11:06:23;;;;;;;3.37;1.97;;;12.70;99.90;;;;;;6150357;23;20166;-93
2022/09/18 11:08:57;;;;;;;6.63;1.70;;;12.70;99.90;;;;;;6151441;23;20182;-94
2022/09/18 11:11:32;;;;;;;5.60;2.20;;;12.70;99.90;;;;;;6134700;23;20246;-94
2022/09/18 11:14:05;;;;;;;4.43;2.00;;;12.70;99.90;;;;;;6129575;23;20278;-93
2022/09/18 11:16:40;;;;;;;2.57;1.50;;;12.70;99.90;;;;;;6128423;23;20174;-92
2022/09/18 11:19:25;;;;;;;4.17;1.57;;;12.60;99.90;;;;;;6128965;23;20173;-93
2022/09/18 11:21:59;;;;;;;5.30;1.80;;;12.60;99.90;;;;;;6127428;23;20174;-93
2022/09/18 11:24:32;;;;;;;4.77;2.23;;;12.70;99.90;;;;;;6128657;23;20820;-92
2022/09/18 11:27:17;;;;;;;2.80;1.60;;;12.60;99.90;;;;;;6128676;23;20166;-94
2022/09/18 11:29:51;;;;;;;2.07;1.80;;;12.60;99.90;;;;;;6127881;23;20252;-93
2022/09/18 11:32:26;;;;;;;3.03;1.73;;;12.60;99.90;;;;;;6127235;23;20162;-92
2022/09/18 11:35:04;;;;;;;4.37;2.03;;;12.60;99.90;;;;;;6129900;23;20209;-92
2022/09/18 11:37:38;;;;;;;4.60;1.60;;;12.50;99.90;;;;;;6132208;23;20189;-92
2022/09/18 11:40:16;;;;;;;3.07;1.83;;;12.50;99.90;;;;;;6110282;23;20508;-92
2022/09/18 11:42:51;;;;;;;3.80;1.97;;;12.50;99.90;;;;;;6129809;23;20166;-92
2022/09/18 11:45:44;;;;;;;3.27;1.90;;;12.50;99.90;;;;;;6133638;23;20617;-92
2022/09/18 11:48:25;;;;;;;2.83;1.80;;;12.60;99.90;;;;;;6134085;23;20182;-93
2022/09/18 11:51:02;;;;;;;5.03;1.87;;;12.60;99.90;;;;;;6135037;23;20193;-92
2022/09/18 11:53:40;;;;;;;3.90;1.90;;;12.60;99.90;;;;;;6130426;23;20242;-92
2022/09/18 11:56:17;;;;;;;2.60;1.50;;;12.60;99.90;;;;;;6131935;23;20214;-93
2022/09/18 11:58:54;;;;;;;3.30;1.53;;;12.60;99.90;;;;;;6133477;23;20189;-91
2022/09/18 12:01:34;;;;;;;3.57;1.70;;;12.70;99.90;;;;;;6133447;23;20257;-92
2022/09/18 12:04:12;;;;;;;2.33;1.47;;;12.70;99.90;;;;;;6135653;23;20181;-92
2022/09/18 12:06:54;;;;;;;3.67;1.90;;;12.70;99.90;;;;;;6140188;23;20174;-92
2022/09/18 12:09:34;;;;;;;3.10;1.60;;;12.70;99.90;;;;;;6145821;23;20178;-92
2022/09/18 12:12:12;;;;;;;3.00;1.80;;;12.60;99.90;;;;;;6151499;23;20529;-93
2022/09/18 12:14:47;;;;;;;4.03;1.83;;;12.70;99.90;;;;;;6150097;23;20262;-91
2022/09/18 12:17:22;;;;;;;3.10;1.93;;;12.60;99.90;;;;;;6148394;23;20205;-92
2022/09/18 12:19:57;;;;;;;3.53;2.20;;;12.70;99.90;;;;;;6147743;23;20193;-90
2022/09/18 12:22:35;;;;;;;2.50;1.70;;;12.60;99.90;;;;;;6144820;23;20238;-93
2022/09/18 12:25:14;;;;;;;5.07;2.07;;;12.50;99.90;;;;;;6139301;23;20200;-90
2022/09/18 12:27:53;;;;;;;2.33;1.60;;;12.30;99.90;;;;;;6121194;23;20260;-92
2022/09/18 12:30:38;;;;;;;4.27;1.60;;;12.20;99.90;;;;;;6122904;23;20222;-92
2022/09/18 12:33:24;;;;;;;3.53;1.87;;;12.20;99.90;;;;;;6137538;23;20186;-92
2022/09/18 12:36:07;;;;;;;3.07;1.80;;;12.30;99.90;;;;;;6104268;23;20202;-93
2022/09/18 12:38:57;;;;;;;4.73;2.30;;;12.40;99.90;;;;;;6130243;23;20618;-94
2022/09/18 12:41:51;;;;;;;4.60;2.07;;;12.40;99.90;;;;;;6129912;23;20194;-92
2022/09/18 12:44:49;;;;;;;3.17;1.90;;;12.40;99.90;;;;;;6104336;23;20173;-93
2022/09/18 12:47:35;;;;;;;4.90;2.43;;;12.30;99.90;;;;;;6128938;23;20174;-92
2022/09/18 12:50:30;;;;;;;2.43;1.80;;;12.30;99.90;;;;;;6105285;23;20178;-93
2022/09/18 12:53:16;;;;;;;5.13;2.20;;;12.30;99.90;;;;;;6128133;23;20193;-92
2022/09/18 12:56:08;;;;;;;3.00;1.87;;;12.30;99.90;;;;;;6129510;23;20202;-93
2022/09/18 12:58:56;;;;;;;3.27;1.93;;;12.20;99.90;;;;;;6129288;23;20230;-93
2022/09/18 13:01:33;;;;;;;2.73;1.87;;;12.20;99.90;;;;;;6128346;23;20245;-92
2022/09/18 13:04:18;;;;;;;3.60;1.77;;;12.20;99.90;;;;;;6127839;23;20178;-92
2022/09/18 13:06:54;;;;;;;2.13;1.80;;;12.10;99.90;;;;;;6129120;23;20670;-93
2022/09/18 13:09:31;;;;;;;3.10;1.90;;;12.10;99.90;;;;;;6129089;23;20174;-93
2022/09/18 13:12:09;;;;;;;2.60;1.90;;;12.10;99.90;;;;;;6131243;23;20178;-92
2022/09/18 13:14:45;;;;;;;4.23;1.87;;;12.00;99.90;;;;;;6129391;23;20500;-93
2022/09/18 13:17:23;;;;;;;4.13;2.00;;;12.00;99.90;;;;;;6128342;23;20174;-93
2022/09/18 13:19:59;;;;;;;2.60;1.80;;;11.90;99.90;;;;;;6129786;23;20560;-93
2022/09/18 13:22:35;;;;;;;4.07;2.37;;;11.90;99.90;;;;;;6127796;23;20499;-93
2022/09/18 13:25:16;;;;;;;5.07;2.27;;;11.90;99.90;;;;;;6127731;23;20261;-93
2022/09/18 13:27:50;;;;;;;4.00;2.40;;;11.80;99.90;;;;;;6128356;23;20174;-93
2022/09/18 13:30:26;;;;;;;3.67;2.30;;;11.90;99.90;;;;;;6128995;23;20519;-93
2022/09/18 13:32:59;;;;;;;3.70;2.10;;;11.80;99.90;;;;;;6127121;23;20524;-93
2022/09/18 13:35:33;;;;;;;3.23;2.00;;;11.80;99.90;;;;;;6128634;23;20201;-92
2022/09/18 13:38:20;;;;;;;2.97;2.47;;;11.70;99.90;;;;;;6127851;23;20186;-93
2022/09/18 13:41:00;;;;;;;4.00;2.57;;;11.70;99.90;;;;;;6132901;23;20181;-92
2022/09/18 13:43:44;;;;;;;2.43;2.07;;;11.70;99.90;;;;;;6127232;23;20254;-92
2022/09/18 13:46:34;;;;;;;2.90;2.10;;;11.70;99.90;;;;;;6131478;23;20262;-91